Crandalls Lodge, Iowa
Current Conditions -  °F | °C
As of 10:13 PM on Tuesday 25 Nov 2014 (Local Time) from KMJQ Reporting Station
Overcast Overcast  
Wind Chill: 21°   Ceiling: 4000
Heat Index: 30°   Visibility: 10mi
Dew Point: 18°   Wind: 10mph
Humidity: 60%   Direction: 140°SE
Pressure: 29.91"   Gusts: NA
Location:  43.4265°N, 95.1547°W
Report Text: KMJQ 260413Z AUTO 14009KT 10SM SCT027 BKN040 OVC047 M01/M08 A2991 RMK AO2
Loading
Personal Weather Stations






























Interactive Weather Map New forecast layout! Learn more

10-Day Weather Forecast

Advertisements
Track Severe Weather on mobile